Weed, CA (96094)

5:54 PM PDT on September 01, 2015 (GMT -0700)
Rancho Hills | | Change Station
CLOSE
Current Station
Personal Weather Station
Location: Lake Shastina, CA
Elevation: 2968 ft
Nearby Weather Stations

Elev 2968 ft 41.54 °N, 122.39 °W | Updated 5 minutes ago

Clear
Clear
85.0 °F
Feels Like 82 °F
N
9.0
Wind Variable Wind from ESE
Gusts 13.0 mph

Today
High -- | Low -- °F
--% Chance of Precip.
Yesterday
High -- | Low -- °F
Precip. -- in
6:35 AM 7:42 PM
Waning Gibbous, 85% visible
Pressure 29.86 in
Visibility 10.0 miles
Clouds Clear
Heat Index 82 °F
Dew Point 45 °F
Humidity 25%
Rainfall 0.00 in
Snow Depth Not available.
UV 3 out of 12
Pollen 6.00 out of 12
Air Quality Not available.
Flu Activity Not available.
METAR KMHS 012356Z AUTO VRB03KT 10SM CLR 27/07 A2989 RMK AO2 SLP111 T02670072 10300 20250 56012
Pressure 29.86 in
Visibility 10.0 miles
Clouds Clear
Heat Index 82 °F
Dew Point 45 °F
Humidity 25%
Rainfall 0.00 in
Snow Depth Not available.
UV 3 out of 12
Pollen 6.00 out of 12
Air Quality Not available.
Flu Activity Not available.
METAR KMHS 012356Z AUTO VRB03KT 10SM CLR 27/07 A2989 RMK AO2 SLP111 T02670072 10300 20250 56012

10-Day Weather Forecast

×

Almanac

Astronomy

Sep. 01, 2015 Rise Set
Actual Time
Civil Twilight
Nautical Twilight
Astronomical Twilight
Moon
Length of Visible Light
Length of Day
Tomorrow will be .
, % of the Moon is Illuminated

Today's Extremes

State Highs State Lows

Community

WunderPhotos

Upload Photos

1,851,658 photos uploaded!

WunderBlogs® & News

Nearby

Air Quality

  Air Quality AQ Index Pollutant
Not available.

Snow Depth

Station Depth Elevation

Earthquake Activity

City Distance Mag. Time & Date
Minimum magnitude displayed is 2.5.

Coastal Water Temperatures

Place Temperature

Stations

Nearby Weather Stations

Station Location Temp. Windchill Dew Point Humidity Wind Precip. Elev Updated Type